地図

経路データ

SID SEASON NUMBER BASIN SUBBASIN NAME ISO_TIME NATURE LAT LON WMO_WIND WMO_PRES WMO_AGENCY TRACK_TYPE DIST2LAND LANDFALL IFLAG USA_AGENCY USA_ATCF_ID USA_LAT USA_LON USA_RECORD USA_STATUS USA_WIND USA_PRES USA_SSHS USA_R34_NE USA_R34_SE USA_R34_SW USA_R34_NW USA_R50_NE USA_R50_SE USA_R50_SW USA_R50_NW USA_R64_NE USA_R64_SE USA_R64_SW USA_R64_NW USA_POCI USA_ROCI USA_RMW USA_EYE TOKYO_LAT TOKYO_LON TOKYO_GRADE TOKYO_WIND TOKYO_PRES TOKYO_R50_DIR TOKYO_R50_LONG TOKYO_R50_SHORT TOKYO_R30_DIR TOKYO_R30_LONG TOKYO_R30_SHORT TOKYO_LAND CMA_LAT CMA_LON CMA_CAT CMA_WIND CMA_PRES HKO_LAT HKO_LON HKO_CAT HKO_WIND HKO_PRES NEWDELHI_LAT NEWDELHI_LON NEWDELHI_GRADE NEWDELHI_WIND NEWDELHI_PRES NEWDELHI_CI NEWDELHI_DP NEWDELHI_POCI REUNION_LAT REUNION_LON REUNION_TYPE REUNION_WIND REUNION_PRES REUNION_TNUM REUNION_CI REUNION_RMW REUNION_R34_NE REUNION_R34_SE REUNION_R34_SW REUNION_R34_NW REUNION_R50_NE REUNION_R50_SE REUNION_R50_SW REUNION_R50_NW REUNION_R64_NE REUNION_R64_SE REUNION_R64_SW REUNION_R64_NW BOM_LAT BOM_LON BOM_TYPE BOM_WIND BOM_PRES BOM_TNUM BOM_CI BOM_RMW BOM_R34_NE BOM_R34_SE BOM_R34_SW BOM_R34_NW BOM_R50_NE BOM_R50_SE BOM_R50_SW BOM_R50_NW BOM_R64_NE BOM_R64_SE BOM_R64_SW BOM_R64_NW BOM_ROCI BOM_POCI BOM_EYE BOM_POS_METHOD BOM_PRES_METHOD NADI_LAT NADI_LON NADI_CAT NADI_WIND NADI_PRES WELLINGTON_LAT WELLINGTON_LON WELLINGTON_WIND WELLINGTON_PRES DS824_LAT DS824_LON DS824_STAGE DS824_WIND DS824_PRES TD9636_LAT TD9636_LON TD9636_STAGE TD9636_WIND TD9636_PRES TD9635_LAT TD9635_LON TD9635_WIND TD9635_PRES TD9635_ROCI NEUMANN_LAT NEUMANN_LON NEUMANN_CLASS NEUMANN_WIND NEUMANN_PRES MLC_LAT MLC_LON MLC_CLASS MLC_WIND MLC_PRES USA_GUST BOM_GUST BOM_GUST_PER REUNION_GUST REUNION_GUST_PER USA_SEAHGT USA_SEARAD_NE USA_SEARAD_SE USA_SEARAD_SW USA_SEARAD_NW STORM_SPEED STORM_DIR
1937198N18113 1937 23 WP MM NOT_NAMED 1937-07-17 10:00:00 NR 18.0000 112.600 main 238 224 __________O___ -1 18.0000 112.600 4 3 307
1937198N18113 1937 23 WP MM NOT_NAMED 1937-07-17 12:00:00 NR 18.0587 112.514 main 224 214 __________P___ -1 18.0587 112.514 4 3 305
1937198N18113 1937 23 WP MM NOT_NAMED 1937-07-17 15:00:00 NR 18.1434 112.385 main 214 200 __________P___ -1 18.1434 112.385 4 3 304
1937198N18113 1937 23 WP MM NOT_NAMED 1937-07-17 18:00:00 NR 18.2198 112.259 main 200 176 __________P___ -1 18.2198 112.259 4 3 301
1937198N18113 1937 23 WP MM NOT_NAMED 1937-07-17 21:00:00 NR 18.2828 112.139 main 176 176 __________P___ -1 18.2828 112.139 4 3 298
1937198N18113 1937 23 WP MM NOT_NAMED 1937-07-17 22:00:00 NR 18.3000 112.100 main 176 167 __________O___ -1 18.3000 112.100 4 2 294
1937198N18113 1937 23 WP MM NOT_NAMED 1937-07-18 00:00:00 NR 18.3281 112.025 main 167 152 __________P___ -1 18.3281 112.025 4 2 289
1937198N18113 1937 23 WP MM NOT_NAMED 1937-07-18 03:00:00 NR 18.3576 111.919 main 152 143 __________P___ -1 18.3576 111.919 4 2 284
1937198N18113 1937 23 WP MM NOT_NAMED 1937-07-18 06:00:00 NR 18.3775 111.820 main 143 133 __________P___ -1 18.3775 111.820 4 2 281
1937198N18113 1937 23 WP MM NOT_NAMED 1937-07-18 09:00:00 NR 18.3941 111.729 main 133 133 __________P___ -1 18.3941 111.729 4 2 282
1937198N18113 1937 23 WP MM NOT_NAMED 1937-07-18 10:00:00 NR 18.4000 111.700 main 133 133 __________O___ -1 18.4000 111.700 4 1 283
1937198N18113 1937 23 WP MM NOT_NAMED 1937-07-18 12:00:00 NR 18.4031 111.694 main 133 133 __________P___ -1 18.4031 111.694 4 0 0
1937198N18113 1937 23 WP MM NOT_NAMED 1937-07-18 15:00:00 NR 18.4076 111.692 main 133 124 __________P___ -1 18.4076 111.692 4 1 305
1937198N18113 1937 23 WP MM NOT_NAMED 1937-07-18 18:00:00 NR 18.4260 111.644 main 124 110 __________P___ -1 18.4260 111.644 4 2 289
1937198N18113 1937 23 WP MM NOT_NAMED 1937-07-18 21:00:00 NR 18.4745 111.487 main 110 100 __________P___ -1 18.4745 111.487 4 4 288
1937198N18113 1937 23 WP MM NOT_NAMED 1937-07-18 22:00:00 NR 18.5000 111.400 main 100 67 __________O___ -1 18.5000 111.400 2 7 288
1937198N18113 1937 23 WP MM NOT_NAMED 1937-07-19 00:00:00 NR 18.5799 111.142 main 67 15 __________P___ -1 18.5799 111.142 2 9 288
1937198N18113 1937 23 WP MM NOT_NAMED 1937-07-19 03:00:00 NR 18.7311 110.636 main 15 0 __________P___ -1 18.7311 110.636 2 11 287
1937198N18113 1937 23 WP MM NOT_NAMED 1937-07-19 06:00:00 NR 18.8974 110.037 main 0 0 __________P___ -1 18.8974 110.037 2 12 286
1937198N18113 1937 23 WP MM NOT_NAMED 1937-07-19 09:00:00 NR 19.0541 109.407 main 0 0 __________P___ -1 19.0541 109.407 2 12 284
1937198N18113 1937 23 WP MM NOT_NAMED 1937-07-19 10:00:00 NR 19.1000 109.200 main 0 0 __________O___ -1 19.1000 109.200 2 12 282
1937198N18113 1937 23 WP MM NOT_NAMED 1937-07-19 12:00:00 NR 19.1787 108.801 main 0 0 __________P___ -1 19.1787 108.801 2 11 280
1937198N18113 1937 23 WP MM NOT_NAMED 1937-07-19 15:00:00 NR 19.2686 108.234 main 41 41 __________P___ -1 19.2686 108.234 2 11 278
1937198N18113 1937 23 WP MM NOT_NAMED 1937-07-19 18:00:00 NR 19.3339 107.695 main 94 94 __________P___ -1 19.3339 107.695 2 10 277
1937198N18113 1937 23 WP MM NOT_NAMED 1937-07-19 21:00:00 NR 19.3846 107.173 main 115 103 __________P___ -1 19.3846 107.173 2 10 276
1937198N18113 1937 23 WP MM NOT_NAMED 1937-07-19 22:00:00 NR 19.4000 107.000 main 103 __________O___ -1 19.4000 107.000 2 10 275

デジタル台風データ・検索

IBTrACS Databaseについて

本データベースは、米国NOAAが公開する1842年以降の世界の熱帯低気圧のベストトラックデータアーカイブInternational Best Track Archive for Climate Stewardship (IBTrACS)を、ウェブで閲覧しやすい形式に変換したものです。

最終更新日:2021-10-19